Wahpeton, North Dakota
Current Conditions -  °F | °C
As of 5:55 PM on Friday 31 Oct 2014 (Local Time) from KBWP Reporting Station
Clear Clear  
Wind Chill: 29°   Ceiling: Unl
Heat Index: 36°   Visibility: 10mi
Dew Point: 19°   Wind: 9mph
Humidity: 52%   Direction: 160°SSE
Pressure: 30.46"   Gusts: NA
Location:  46.26°N, 96.6°W
Report Text: KBWP 312255Z AUTO 16008KT 10SM CLR 02/M07 A3046 RMK AO1
Loading
Personal Weather Stations






























Interactive Weather Map
Tropical Storm Tracking
New forecast layout! Learn more

10-Day Weather Forecast

Advertisements
Track Severe Weather on mobile